createdAt,value
2023-03-17T00:00:26.377Z,100998.55
2023-03-17T00:01:26.673Z,100997.78
2023-03-17T00:02:27.068Z,100998.16
2023-03-17T00:03:28.720Z,100998.58
2023-03-17T00:04:27.917Z,101001.17
2023-03-17T00:05:33.065Z,101000.45
2023-03-17T00:06:32.441Z,101001.88
2023-03-17T00:07:30.781Z,101004.91
2023-03-17T00:08:35.729Z,101003.92
2023-03-17T00:09:33.120Z,101008.77
2023-03-17T00:10:33.503Z,101008.73
2023-03-17T00:11:34.046Z,101013.27
2023-03-17T00:12:34.178Z,101016.64
2023-03-17T00:13:37.396Z,101016.2
2023-03-17T00:14:34.952Z,101018.91
2023-03-17T00:15:35.478Z,101019.38
2023-03-17T00:16:39.679Z,101020.02
2023-03-17T00:17:37.050Z,101024.37
2023-03-17T00:18:37.740Z,101024.88
2023-03-17T00:19:37.955Z,101026.88
2023-03-17T00:20:38.272Z,101028.12
2023-03-17T00:21:38.754Z,101033.05
2023-03-17T00:22:39.013Z,101032.55
2023-03-17T00:23:39.270Z,101035.3
2023-03-17T00:24:39.887Z,101036.84
2023-03-17T00:25:40.139Z,101036.45
2023-03-17T00:26:40.462Z,101035.81
2023-03-17T00:27:40.830Z,101036.94
2023-03-17T00:28:41.398Z,101038.13
2023-03-17T00:29:41.671Z,101034.91
2023-03-17T00:30:41.914Z,101034.14
2023-03-17T00:31:44.340Z,101033.11
2023-03-17T00:32:43.226Z,101035.44
2023-03-17T00:33:44.690Z,101035.02
2023-03-17T00:34:45.229Z,101037.28
2023-03-17T00:35:44.700Z,101031.83
2023-03-17T00:36:47.793Z,101031.05
2023-03-17T00:37:45.859Z,101031.77
2023-03-17T00:38:46.072Z,101038.91
2023-03-17T00:39:45.970Z,101035.57
2023-03-17T00:40:49.160Z,101036.94
2023-03-17T00:42:47.941Z,101038.45
2023-03-17T00:43:47.334Z,101039.11
2023-03-17T00:44:47.843Z,101044.24
2023-03-17T00:45:48.158Z,101047.19
2023-03-17T00:46:48.556Z,101049.31
2023-03-17T00:47:50.647Z,101052.34
2023-03-17T00:48:49.512Z,101051.94
2023-03-17T00:49:49.837Z,101057.69
2023-03-17T00:50:50.874Z,101053.18
2023-03-17T00:51:51.003Z,101052.48
2023-03-17T00:52:53.314Z,101053.66
2023-03-17T00:53:51.702Z,101054.81
2023-03-17T00:54:51.598Z,101055.73
2023-03-17T00:55:52.085Z,101050.16
2023-03-17T00:56:52.954Z,101049.3
2023-03-17T00:57:53.158Z,101049.39
2023-03-17T00:58:53.162Z,101049.58
2023-03-17T00:59:53.589Z,101049.38
2023-03-17T01:00:54.347Z,101051.73
2023-03-17T01:01:54.512Z,101059.97
2023-03-17T01:02:57.087Z,101059.36
2023-03-17T01:03:54.947Z,101057.01
2023-03-17T01:05:05.451Z,101059.58
2023-03-17T01:05:59.059Z,101057.59
2023-03-17T01:06:59.058Z,101065.59
2023-03-17T01:07:59.172Z,101060.03
2023-03-17T01:09:02.467Z,101059.26
2023-03-17T01:10:00.114Z,101059.97
2023-03-17T01:11:00.639Z,101062.01
2023-03-17T01:12:00.739Z,101065.88
2023-03-17T01:13:01.245Z,101062.75
2023-03-17T01:14:01.452Z,101066.38
2023-03-17T01:15:01.975Z,101065.21
2023-03-17T01:16:02.178Z,101067.17
2023-03-17T01:17:02.618Z,101063.67
2023-03-17T01:18:04.050Z,101066.37
2023-03-17T01:19:03.749Z,101072.3
2023-03-17T01:20:04.977Z,101064.33
2023-03-17T01:21:04.576Z,101066.25
2023-03-17T01:22:04.483Z,101071.19
2023-03-17T01:23:05.404Z,101070.14
2023-03-17T01:24:06.548Z,101073.36
2023-03-17T01:25:06.348Z,101070.33
2023-03-17T01:26:06.097Z,101071.95
2023-03-17T01:27:06.856Z,101074.6
2023-03-17T01:28:07.130Z,101074.92
2023-03-17T01:29:07.398Z,101072.25
2023-03-17T01:31:10.245Z,101076.36
2023-03-17T01:32:11.009Z,101075.52
2023-03-17T01:33:12.662Z,101076
2023-03-17T01:34:11.636Z,101075.66
2023-03-17T01:35:11.642Z,101071.95
2023-03-17T01:36:13.432Z,101078.29
2023-03-17T01:37:12.621Z,101074.41
2023-03-17T01:38:13.091Z,101079.09
2023-03-17T01:39:13.148Z,101080.77
2023-03-17T01:40:21.807Z,101085.58
2023-03-17T01:41:14.543Z,101086.47
2023-03-17T01:42:14.654Z,101092.25
2023-03-17T01:43:24.081Z,101092.46
2023-03-17T01:44:18.264Z,101090.23
2023-03-17T01:46:28.708Z,101097.72
2023-03-17T01:47:27.305Z,101094.62
2023-03-17T01:48:27.708Z,101096.96
2023-03-17T01:49:34.181Z,101098.06
2023-03-17T01:50:32.048Z,101094.67
2023-03-17T01:52:38.336Z,101098.11
2023-03-17T01:53:37.459Z,101095
2023-03-17T01:55:38.713Z,101092.47
2023-03-17T01:56:41.858Z,101093.45
2023-03-17T01:57:48.249Z,101092.5
2023-03-17T01:58:41.888Z,101086.91
2023-03-17T02:00:44.816Z,101089.61
2023-03-17T02:01:48.268Z,101086.94
2023-03-17T02:02:48.262Z,101089.77
2023-03-17T02:03:46.884Z,101089.59
2023-03-17T02:04:46.334Z,101085.8
2023-03-17T02:05:46.750Z,101087.61
2023-03-17T02:06:57.912Z,101084.9
2023-03-17T02:07:52.510Z,101086.22
2023-03-17T02:08:51.282Z,101086.8
2023-03-17T02:09:51.667Z,101081.57
2023-03-17T02:10:53.856Z,101082.8
2023-03-17T02:11:53.960Z,101080.43
2023-03-17T02:13:00.418Z,101080.31
2023-03-17T02:13:57.666Z,101082.02
2023-03-17T02:14:58.494Z,101083.39
2023-03-17T02:15:58.357Z,101083.52
2023-03-17T02:16:58.793Z,101085.62
2023-03-17T02:17:59.213Z,101085.18
2023-03-17T02:18:59.642Z,101078.47
2023-03-17T02:22:07.543Z,101083.48
2023-03-17T02:23:08.070Z,101085.58
2023-03-17T02:25:17.009Z,101090.81
2023-03-17T02:26:14.524Z,101090.39
2023-03-17T02:27:19.806Z,101091.41
2023-03-17T02:28:21.020Z,101091.12
2023-03-17T02:29:20.443Z,101092.62
2023-03-17T02:30:20.814Z,101090.46
2023-03-17T02:31:20.135Z,101093.68
2023-03-17T02:32:19.911Z,101096.78
2023-03-17T02:33:19.803Z,101096.17
2023-03-17T02:34:20.418Z,101099.07
2023-03-17T02:35:20.969Z,101095.59
2023-03-17T02:36:22.216Z,101097.41
2023-03-17T02:37:21.504Z,101094.84
2023-03-17T02:38:21.823Z,101099.77
2023-03-17T02:39:22.429Z,101098.47
2023-03-17T02:40:22.930Z,101093.91
2023-03-17T02:41:23.759Z,101094.73
2023-03-17T02:42:23.362Z,101104.83
2023-03-17T02:43:24.012Z,101105.52
2023-03-17T02:44:24.702Z,101103.11
2023-03-17T02:45:24.592Z,101109.08
2023-03-17T02:46:24.940Z,101110.79
2023-03-17T02:47:25.179Z,101117.42
2023-03-17T02:48:25.849Z,101122.69
2023-03-17T02:49:27.233Z,101123.64
2023-03-17T02:50:29.203Z,101125.08
2023-03-17T02:51:27.000Z,101125.77
2023-03-17T02:52:27.312Z,101122.3
2023-03-17T02:53:27.529Z,101123.28
2023-03-17T02:54:28.155Z,101124.06
2023-03-17T02:55:28.359Z,101126.73
2023-03-17T02:56:28.676Z,101124.12
2023-03-17T02:57:29.086Z,101122.6
2023-03-17T02:58:29.600Z,101123.2
2023-03-17T02:59:31.146Z,101127.05
2023-03-17T03:00:30.607Z,101127.73
2023-03-17T03:01:30.798Z,101127.69
2023-03-17T03:02:31.108Z,101134.05
2023-03-17T03:03:31.598Z,101133.33
2023-03-17T03:04:31.906Z,101132.34
2023-03-17T03:05:32.921Z,101133.69
2023-03-17T03:06:33.175Z,101137.63
2023-03-17T03:07:35.715Z,101139.58
2023-03-17T03:08:33.585Z,101138.37
2023-03-17T03:09:33.881Z,101142.09
2023-03-17T03:10:34.103Z,101140.75
2023-03-17T03:11:34.705Z,101140.59
2023-03-17T03:12:34.936Z,101138.02
2023-03-17T03:13:35.451Z,101139.88
2023-03-17T03:14:36.177Z,101141.72
2023-03-17T03:15:36.269Z,101142.66
2023-03-17T03:16:36.606Z,101145.2
2023-03-17T03:17:36.901Z,101146.26
2023-03-17T03:18:37.227Z,101145.98
2023-03-17T03:19:38.049Z,101146.11
2023-03-17T03:20:38.053Z,101145.12
2023-03-17T03:21:38.676Z,101145.55
2023-03-17T03:22:38.883Z,101149.6
2023-03-17T03:23:39.293Z,101146.41
2023-03-17T03:24:42.560Z,101151.34
2023-03-17T03:25:41.788Z,101155.66
2023-03-17T03:26:40.314Z,101150.84
2023-03-17T03:27:40.984Z,101152.23
2023-03-17T03:28:41.177Z,101154.71
2023-03-17T03:29:41.593Z,101151.72
2023-03-17T03:30:42.122Z,101152.61
2023-03-17T03:31:42.274Z,101156.09
2023-03-17T03:32:42.874Z,101156.64
2023-03-17T03:33:44.999Z,101154.78
2023-03-17T03:34:43.477Z,101154.97
2023-03-17T03:35:44.161Z,101159.38
2023-03-17T03:36:44.964Z,101161.43
2023-03-17T03:37:44.793Z,101161.81
2023-03-17T03:38:45.540Z,101161.96
2023-03-17T03:39:45.453Z,101160.02
2023-03-17T03:40:46.017Z,101163.62
2023-03-17T03:41:46.138Z,101161.06
2023-03-17T03:42:46.760Z,101165.37
2023-03-17T03:43:47.028Z,101163.02
2023-03-17T03:44:47.531Z,101162.77
2023-03-17T03:45:48.559Z,101165.65
2023-03-17T03:46:48.953Z,101166.56
2023-03-17T03:47:49.600Z,101166
2023-03-17T03:48:49.680Z,101169.32
2023-03-17T03:49:50.233Z,101174.02
2023-03-17T03:50:50.645Z,101171.99
2023-03-17T03:51:51.531Z,101170.94
2023-03-17T03:52:52.101Z,101171.34
2023-03-17T03:53:52.502Z,101172.76
2023-03-17T03:54:52.917Z,101176.59
2023-03-17T03:55:57.443Z,101179.94
2023-03-17T03:56:54.776Z,101177.83
2023-03-17T03:57:55.187Z,101176.8
2023-03-17T03:58:55.611Z,101173.89
2023-03-17T03:59:55.819Z,101173.61
2023-03-17T04:00:57.099Z,101171.11
2023-03-17T04:01:57.436Z,101168.06
2023-03-17T04:02:58.308Z,101171.06
2023-03-17T04:03:58.204Z,101171.44
2023-03-17T04:04:58.798Z,101171.47
2023-03-17T04:05:59.258Z,101166.23
2023-03-17T04:07:00.380Z,101168.18
2023-03-17T04:07:59.865Z,101167.44
2023-03-17T04:09:00.292Z,101172.65
2023-03-17T04:10:01.437Z,101171.16
2023-03-17T04:11:01.683Z,101175.72
2023-03-17T04:12:02.851Z,101179.2
2023-03-17T04:13:02.456Z,101176.2
2023-03-17T04:14:02.834Z,101178.12
2023-03-17T04:15:03.916Z,101175.33
2023-03-17T04:16:03.907Z,101180.44
2023-03-17T04:17:04.121Z,101175.94
2023-03-17T04:18:04.427Z,101180.83
2023-03-17T04:19:05.704Z,101185.13
2023-03-17T04:20:07.009Z,101183.86
2023-03-17T04:21:06.829Z,101185.26
2023-03-17T04:22:07.840Z,101189.76
2023-03-17T04:23:07.157Z,101194.54
2023-03-17T04:24:08.703Z,101188.91
2023-03-17T04:25:09.107Z,101193.73
2023-03-17T04:26:09.463Z,101195.41
2023-03-17T04:27:09.230Z,101199.86
2023-03-17T04:28:09.101Z,101199.8
2023-03-17T04:29:10.057Z,101198.72
2023-03-17T04:30:13.117Z,101198.07
2023-03-17T04:31:12.671Z,101201.48
2023-03-17T04:32:12.830Z,101198.03
2023-03-17T04:33:11.286Z,101198.44
2023-03-17T04:34:18.812Z,101200.02
2023-03-17T04:35:19.035Z,101201.73
2023-03-17T04:36:24.476Z,101197.38
2023-03-17T04:37:17.060Z,101196.77
2023-03-17T04:38:17.433Z,101195.27
2023-03-17T04:39:17.683Z,101195.05
2023-03-17T04:40:19.849Z,101198.12
2023-03-17T04:41:19.129Z,101200.25
2023-03-17T04:42:19.198Z,101195.8
2023-03-17T04:43:19.364Z,101194.25
2023-03-17T04:44:19.736Z,101197.68
2023-03-17T04:45:20.386Z,101195.23
2023-03-17T04:46:20.494Z,101195.58
2023-03-17T04:47:21.174Z,101194.51
2023-03-17T04:48:21.307Z,101197.73
2023-03-17T04:49:21.860Z,101201.15
2023-03-17T04:50:22.270Z,101202.19
2023-03-17T04:51:22.608Z,101199.19
2023-03-17T04:52:23.054Z,101200.84
2023-03-17T04:53:23.330Z,101201.98
2023-03-17T04:54:23.676Z,101203.72
2023-03-17T04:55:24.261Z,101204.61
2023-03-17T04:56:24.526Z,101205.09
2023-03-17T04:57:25.089Z,101207.08
2023-03-17T04:58:30.929Z,101207.03
2023-03-17T04:59:28.783Z,101208.22
2023-03-17T05:00:29.362Z,101205.75
2023-03-17T05:01:29.453Z,101205.45
2023-03-17T05:02:30.084Z,101207.73
2023-03-17T05:03:31.163Z,101210.3
2023-03-17T05:04:32.370Z,101211.26
2023-03-17T05:05:31.175Z,101211.86
2023-03-17T05:06:31.701Z,101213.81
2023-03-17T05:07:34.061Z,101210.11
2023-03-17T05:08:32.962Z,101211.7
2023-03-17T05:09:32.947Z,101212.94
2023-03-17T05:10:33.255Z,101213.08
2023-03-17T05:11:33.592Z,101217.3
2023-03-17T05:12:34.090Z,101218.54
2023-03-17T05:13:34.665Z,101217.73
2023-03-17T05:14:34.931Z,101216.97
2023-03-17T05:15:35.226Z,101218.92
2023-03-17T05:16:35.706Z,101217.83
2023-03-17T05:17:36.068Z,101219.14
2023-03-17T05:18:37.402Z,101221.11
2023-03-17T05:19:36.798Z,101217.7
2023-03-17T05:20:37.244Z,101220.86
2023-03-17T05:21:37.677Z,101220
2023-03-17T05:22:38.771Z,101218.23
2023-03-17T05:23:38.495Z,101219.44
2023-03-17T05:24:38.743Z,101219.36
2023-03-17T05:25:39.412Z,101217.39
2023-03-17T05:26:40.939Z,101216.05
2023-03-17T05:27:40.141Z,101221.41
2023-03-17T05:28:40.499Z,101222.88
2023-03-17T05:29:40.966Z,101217.22
2023-03-17T05:30:42.788Z,101223.15
2023-03-17T05:31:41.694Z,101224.75
2023-03-17T05:32:42.236Z,101221.92
2023-03-17T05:33:42.533Z,101221.56
2023-03-17T05:34:42.950Z,101221.94
2023-03-17T05:35:43.695Z,101220.83
2023-03-17T05:36:43.822Z,101229.12
2023-03-17T05:37:44.598Z,101223.52
2023-03-17T05:38:44.806Z,101227.23
2023-03-17T05:39:44.925Z,101225.34
2023-03-17T05:40:45.992Z,101228.02
2023-03-17T05:41:45.763Z,101230.28
2023-03-17T05:42:46.378Z,101232.88
2023-03-17T05:43:46.522Z,101237.18
2023-03-17T05:44:46.906Z,101232.99
2023-03-17T05:45:47.920Z,101232.93
2023-03-17T05:46:47.838Z,101232.09
2023-03-17T05:47:48.669Z,101236.94
2023-03-17T05:48:48.558Z,101234.81
2023-03-17T05:49:48.989Z,101240.43
2023-03-17T05:50:49.405Z,101239.64
2023-03-17T05:51:49.817Z,101243.95
2023-03-17T05:52:50.343Z,101248.16
2023-03-17T05:53:50.548Z,101249.12
2023-03-17T05:54:51.070Z,101249.31
2023-03-17T05:55:51.483Z,101250.83
2023-03-17T05:56:51.897Z,101248.59
2023-03-17T05:57:52.416Z,101249.39
2023-03-17T05:58:52.634Z,101251.69
2023-03-17T05:59:52.850Z,101253.17
2023-03-17T06:00:53.290Z,101248.02
2023-03-17T06:01:53.776Z,101252.17
2023-03-17T06:02:55.414Z,101249.86
2023-03-17T06:03:57.454Z,101256.27
2023-03-17T06:04:56.247Z,101254.02
2023-03-17T06:05:55.543Z,101253.3
2023-03-17T06:06:55.795Z,101257.2
2023-03-17T06:07:56.720Z,101256.05
2023-03-17T06:08:56.710Z,101254.99
2023-03-17T06:09:57.221Z,101257.7
2023-03-17T06:10:57.823Z,101261.6
2023-03-17T06:11:57.937Z,101257.31
2023-03-17T06:12:58.687Z,101260.51
2023-03-17T06:13:58.661Z,101254.16
2023-03-17T06:14:59.013Z,101258.45
2023-03-17T06:15:59.474Z,101259.05
2023-03-17T06:17:00.551Z,101259.95
2023-03-17T06:18:04.320Z,101259.66
2023-03-17T06:19:01.731Z,101261.22
2023-03-17T06:20:02.300Z,101262.92
2023-03-17T06:21:02.499Z,101264.19
2023-03-17T06:22:03.024Z,101264.47
2023-03-17T06:23:06.071Z,101263.56
2023-03-17T06:24:05.318Z,101258.98
2023-03-17T06:25:04.995Z,101262.72
2023-03-17T06:26:05.090Z,101263.05
2023-03-17T06:27:07.839Z,101261
2023-03-17T06:28:05.874Z,101263.56
2023-03-17T06:29:06.762Z,101268.59
2023-03-17T06:30:07.589Z,101267.67
2023-03-17T06:31:07.446Z,101265.95
2023-03-17T06:32:19.998Z,101272.52
2023-03-17T06:33:09.432Z,101272.08
2023-03-17T06:34:09.489Z,101273.05
2023-03-17T06:35:09.989Z,101270.34
2023-03-17T06:36:10.458Z,101272.65
2023-03-17T06:37:10.720Z,101277
2023-03-17T06:38:11.580Z,101273.48
2023-03-17T06:39:12.153Z,101273.11
2023-03-17T06:40:13.406Z,101278.76
2023-03-17T06:41:12.319Z,101281.55
2023-03-17T06:42:12.687Z,101279.88
2023-03-17T06:43:12.597Z,101279.8
2023-03-17T06:44:12.701Z,101282.05
2023-03-17T06:45:13.110Z,101283.08
2023-03-17T06:46:13.659Z,101283.3
2023-03-17T06:47:13.751Z,101284.98
2023-03-17T06:48:14.259Z,101280.89
2023-03-17T06:49:14.570Z,101285.22
2023-03-17T06:50:15.709Z,101283.91
2023-03-17T06:51:14.904Z,101281.21
2023-03-17T06:52:15.322Z,101277.62
2023-03-17T06:53:16.009Z,101278.19
2023-03-17T06:54:16.038Z,101276.52
2023-03-17T06:55:16.968Z,101275.52
2023-03-17T06:56:29.559Z,101273.88
2023-03-17T06:57:18.004Z,101274
2023-03-17T06:58:18.414Z,101274.91
2023-03-17T06:59:19.609Z,101273.34
2023-03-17T07:00:23.866Z,101272.02
2023-03-17T07:01:21.369Z,101272.77
2023-03-17T07:02:21.641Z,101275.3
2023-03-17T07:03:21.928Z,101277.27
2023-03-17T07:04:22.391Z,101275.84
2023-03-17T07:05:22.564Z,101274.33
2023-03-17T07:06:23.196Z,101276.53
2023-03-17T07:07:23.490Z,101276.66
2023-03-17T07:08:23.605Z,101278.89
2023-03-17T07:09:23.912Z,101286.46
2023-03-17T07:10:24.246Z,101286.08
2023-03-17T07:11:24.575Z,101284.64
2023-03-17T07:12:24.762Z,101279.12
2023-03-17T07:13:26.020Z,101278.08
2023-03-17T07:14:25.639Z,101279.73
2023-03-17T07:15:25.926Z,101282.54
2023-03-17T07:16:26.314Z,101284.2
2023-03-17T07:17:26.608Z,101282.57
2023-03-17T07:18:27.050Z,101285.31
2023-03-17T07:19:27.470Z,101282.14
2023-03-17T07:20:27.588Z,101282.12
2023-03-17T07:21:27.934Z,101283.78
2023-03-17T07:22:28.204Z,101285.45
2023-03-17T07:23:29.858Z,101290.14
2023-03-17T07:24:28.832Z,101282.61
2023-03-17T07:25:29.515Z,101288.36
2023-03-17T07:26:29.539Z,101288.99
2023-03-17T07:27:29.885Z,101284.23
2023-03-17T07:28:33.339Z,101284.72
2023-03-17T07:29:31.228Z,101284.95
2023-03-17T07:30:31.126Z,101280.3
2023-03-17T07:31:31.587Z,101279.03
2023-03-17T07:32:32.704Z,101285.21
2023-03-17T07:33:32.184Z,101284.73
2023-03-17T07:34:32.671Z,101284.56
2023-03-17T07:35:33.180Z,101287.03
2023-03-17T07:36:33.755Z,101288.69
2023-03-17T07:37:33.435Z,101286.97
2023-03-17T07:38:35.407Z,101288.27
2023-03-17T07:39:34.946Z,101284.75
2023-03-17T07:40:35.485Z,101290.52
2023-03-17T07:41:35.162Z,101289.16
2023-03-17T07:42:36.224Z,101289.15
2023-03-17T07:43:35.509Z,101287.73
2023-03-17T07:44:36.079Z,101288.84
2023-03-17T07:45:36.297Z,101288.75
2023-03-17T07:46:36.504Z,101290.29
2023-03-17T07:47:37.302Z,101289.56
2023-03-17T07:48:37.298Z,101290.69
2023-03-17T07:49:41.732Z,101291.03
2023-03-17T07:50:42.739Z,101292.53
2023-03-17T07:51:40.286Z,101293.94
2023-03-17T07:52:40.586Z,101296.61
2023-03-17T07:53:41.025Z,101298.11
2023-03-17T07:54:42.965Z,101297.12
2023-03-17T07:55:42.359Z,101302.81
2023-03-17T07:56:42.056Z,101301.13
2023-03-17T07:57:42.269Z,101301.55
2023-03-17T07:58:42.583Z,101296.01
2023-03-17T07:59:43.108Z,101294.25
2023-03-17T08:00:43.285Z,101299.19
2023-03-17T08:01:43.952Z,101304.17
2023-03-17T08:02:44.206Z,101299.83
2023-03-17T08:03:44.412Z,101296.66
2023-03-17T08:04:45.555Z,101296.88
2023-03-17T08:05:52.361Z,101296.48
2023-03-17T08:06:49.781Z,101297.56
2023-03-17T08:07:50.750Z,101297.42
2023-03-17T08:08:51.660Z,101300.27
2023-03-17T08:09:51.368Z,101296.52
2023-03-17T08:10:52.058Z,101298.95
2023-03-17T08:11:51.610Z,101299.98
2023-03-17T08:12:52.082Z,101302.37
2023-03-17T08:13:52.515Z,101305.2
2023-03-17T08:14:53.036Z,101305.22
2023-03-17T08:15:53.883Z,101307.38
2023-03-17T08:16:53.566Z,101304.92
2023-03-17T08:17:53.776Z,101308.69
2023-03-17T08:18:54.309Z,101309.09
2023-03-17T08:19:55.554Z,101309.17
2023-03-17T08:20:54.971Z,101310.7
2023-03-17T08:21:55.378Z,101310.41
2023-03-17T08:22:55.817Z,101306.75
2023-03-17T08:23:55.962Z,101305.2
2023-03-17T08:24:56.334Z,101309.98
2023-03-17T08:26:02.671Z,101310.12
2023-03-17T08:27:02.170Z,101307.92
2023-03-17T08:28:00.576Z,101317.88
2023-03-17T08:29:01.740Z,101313.75
2023-03-17T08:30:01.239Z,101314.02
2023-03-17T08:32:03.112Z,101324.58
2023-03-17T08:33:03.278Z,101320.57
2023-03-17T08:34:03.502Z,101313.61
2023-03-17T08:35:04.333Z,101317.06
2023-03-17T08:36:06.615Z,101316.7
2023-03-17T08:37:10.119Z,101320.66
2023-03-17T08:38:09.178Z,101317.5
2023-03-17T08:39:09.499Z,101320.67
2023-03-17T08:40:13.427Z,101324.74
2023-03-17T08:41:14.704Z,101323.51
2023-03-17T08:42:11.946Z,101327.27
2023-03-17T08:43:12.363Z,101325.89
2023-03-17T08:44:13.452Z,101327.25
2023-03-17T08:45:14.231Z,101327.59
2023-03-17T08:47:15.825Z,101326.05
2023-03-17T08:48:15.886Z,101331.25
2023-03-17T08:49:16.341Z,101328.48
2023-03-17T08:50:20.123Z,101330.63
2023-03-17T08:51:22.097Z,101331.73
2023-03-17T08:52:21.043Z,101338.34
2023-03-17T08:53:21.967Z,101335.58
2023-03-17T08:54:21.967Z,101335.78
2023-03-17T08:55:22.399Z,101336.84
2023-03-17T08:56:22.592Z,101340.88
2023-03-17T08:57:23.290Z,101341.41
2023-03-17T08:58:24.967Z,101345.2
2023-03-17T08:59:23.643Z,101341.99
2023-03-17T09:00:24.472Z,101343.88
2023-03-17T09:01:25.297Z,101342.69
2023-03-17T09:02:24.974Z,101343.45
2023-03-17T09:03:25.192Z,101340.32
2023-03-17T09:04:25.729Z,101342
2023-03-17T09:05:26.091Z,101341.77
2023-03-17T09:06:26.252Z,101340.11
2023-03-17T09:07:26.882Z,101349.47
2023-03-17T09:08:27.619Z,101341.77
2023-03-17T09:09:27.256Z,101344.66
2023-03-17T09:10:27.916Z,101342.22
2023-03-17T09:11:30.179Z,101338.33
2023-03-17T09:12:28.445Z,101337.56
2023-03-17T09:13:28.717Z,101336.22
2023-03-17T09:14:30.569Z,101341.66
2023-03-17T09:15:33.338Z,101336.53
2023-03-17T09:16:31.385Z,101340.56
2023-03-17T09:17:31.961Z,101335.42
2023-03-17T09:18:32.057Z,101336.7
2023-03-17T09:19:32.345Z,101339.58
2023-03-17T09:20:33.993Z,101340.56
2023-03-17T09:21:33.204Z,101339.93
2023-03-17T09:22:34.866Z,101332.45
2023-03-17T09:23:33.853Z,101336.7
2023-03-17T09:24:34.378Z,101336.54
2023-03-17T09:25:38.677Z,101336.36
2023-03-17T09:26:36.521Z,101339.44
2023-03-17T09:27:36.334Z,101335.12
2023-03-17T09:28:36.839Z,101340.11
2023-03-17T09:29:37.140Z,101339.65
2023-03-17T09:30:37.458Z,101338.58
2023-03-17T09:31:38.124Z,101336.89
2023-03-17T09:32:38.215Z,101336.55
2023-03-17T09:33:39.957Z,101338.03
2023-03-17T09:34:39.059Z,101341.78
2023-03-17T09:35:40.727Z,101343.25
2023-03-17T09:36:41.301Z,101341.78
2023-03-17T09:37:40.177Z,101346.79
2023-03-17T09:38:40.387Z,101338.09
2023-03-17T09:39:41.225Z,101342.64
2023-03-17T09:45:52.931Z,101344
2023-03-17T09:50:04.424Z,101339.59
2023-03-17T09:51:05.097Z,101346.2
2023-03-17T09:52:02.583Z,101347.81
2023-03-17T09:53:10.694Z,101344.74
2023-03-17T09:54:06.834Z,101346.82
2023-03-17T09:55:07.635Z,101347.42
2023-03-17T09:58:11.797Z,101342.7
2023-03-17T10:01:14.221Z,101344.66
2023-03-17T10:03:16.497Z,101336.08
2023-03-17T10:04:18.871Z,101338.3
2023-03-17T10:11:42.871Z,101339.08
2023-03-17T10:18:01.034Z,101340.69
2023-03-17T10:19:09.438Z,101342.52
2023-03-17T10:21:07.751Z,101343.78
2023-03-17T10:23:13.558Z,101342.2
2023-03-17T10:24:11.714Z,101336.02
2023-03-17T10:27:19.242Z,101337.48
2023-03-17T10:28:26.589Z,101342.53
2023-03-17T10:29:25.503Z,101335.03
2023-03-17T10:30:24.675Z,101336.36
2023-03-17T10:31:31.136Z,101340.98
2023-03-17T10:32:31.312Z,101336.47
2023-03-17T10:33:29.089Z,101337.62
2023-03-17T10:34:32.586Z,101334.27
2023-03-17T10:35:33.945Z,101339.53
2023-03-17T10:36:38.473Z,101337.55
2023-03-17T10:37:35.981Z,101334.05
2023-03-17T10:38:36.814Z,101335.31
2023-03-17T10:40:39.079Z,101343.92
2023-03-17T10:41:41.836Z,101340.27
2023-03-17T10:42:48.707Z,101337.6
2023-03-17T10:43:49.837Z,101336.98
2023-03-17T10:46:56.606Z,101340.17
2023-03-17T10:47:56.625Z,101338.77
2023-03-17T10:48:58.063Z,101341.45
2023-03-17T10:49:58.285Z,101343.84
2023-03-17T10:50:58.293Z,101336.53
2023-03-17T10:51:56.237Z,101339.23
2023-03-17T10:53:07.929Z,101341.99
2023-03-17T10:54:07.110Z,101341.58
2023-03-17T10:55:10.410Z,101341.07
2023-03-17T10:56:11.124Z,101340.62
2023-03-17T10:57:08.808Z,101342.42
2023-03-17T11:00:20.870Z,101341.12
2023-03-17T11:03:30.459Z,101343.98
2023-03-17T11:05:30.663Z,101344.92
2023-03-17T11:07:37.865Z,101346.3
2023-03-17T11:09:37.782Z,101345.94
2023-03-17T11:10:39.371Z,101338.41
2023-03-17T11:12:42.762Z,101348.2
2023-03-17T11:13:42.989Z,101347.12
2023-03-17T11:14:44.005Z,101351.53
2023-03-17T11:18:56.432Z,101341.09
2023-03-17T11:28:24.047Z,101339.81
2023-03-17T11:39:02.756Z,101336.77
2023-03-17T11:49:26.545Z,101334.59
2023-03-17T11:59:00.287Z,101334.7
2023-03-17T12:01:01.722Z,101331.56
2023-03-17T12:05:13.005Z,101334.16
2023-03-17T12:06:14.037Z,101331.42
2023-03-17T12:17:44.680Z,101320.93
2023-03-17T12:21:55.729Z,101327.77
2023-03-17T12:22:59.051Z,101325.2
2023-03-17T12:27:03.336Z,101331.18
2023-03-17T12:31:17.545Z,101327.26
2023-03-17T12:33:26.783Z,101328.47
2023-03-17T12:36:26.634Z,101330.2
2023-03-17T12:37:28.031Z,101332.25
2023-03-17T12:54:19.994Z,101329.59
2023-03-17T12:55:18.778Z,101326.48
2023-03-17T12:58:37.801Z,101325.81
2023-03-17T12:59:25.823Z,101324.45
2023-03-17T13:00:34.267Z,101320.89
2023-03-17T13:04:36.106Z,101317.61
2023-03-17T13:05:35.023Z,101322.59
2023-03-17T13:08:41.377Z,101322.02
2023-03-17T13:09:47.645Z,101323.26
2023-03-17T13:10:46.059Z,101323.05
2023-03-17T13:11:48.785Z,101321.64
2023-03-17T13:14:58.735Z,101320.58
2023-03-17T13:15:59.033Z,101321.05
2023-03-17T13:19:18.322Z,101324.69
2023-03-17T13:20:17.312Z,101325.79
2023-03-17T13:21:13.280Z,101324.44
2023-03-17T13:32:36.863Z,101318.88
2023-03-17T13:33:35.509Z,101319.16
2023-03-17T13:49:30.096Z,101311.61
2023-03-17T13:50:31.926Z,101310.53
2023-03-17T13:51:32.019Z,101309.58
2023-03-17T13:54:35.654Z,101299.74
2023-03-17T13:57:39.415Z,101303.5
2023-03-17T14:00:47.670Z,101306.67
2023-03-17T14:02:50.055Z,101303.98
2023-03-17T14:03:55.434Z,101302.12
2023-03-17T14:05:59.278Z,101301.66
2023-03-17T14:07:06.281Z,101297.81
2023-03-17T14:08:03.014Z,101295.9
2023-03-17T14:09:10.371Z,101292.27
2023-03-17T14:10:06.166Z,101288.47
2023-03-17T14:18:20.508Z,101293.77
2023-03-17T14:20:24.571Z,101288.19
2023-03-17T14:22:25.307Z,101294.17
2023-03-17T14:23:24.989Z,101292.97
2023-03-17T14:26:31.057Z,101283.18
2023-03-17T14:27:33.627Z,101283.34
2023-03-17T14:28:33.732Z,101286.53
2023-03-17T14:29:32.707Z,101284.5
2023-03-17T14:30:34.034Z,101280.84
2023-03-17T14:31:32.286Z,101284.05
2023-03-17T14:32:32.506Z,101279.33
2023-03-17T14:33:37.459Z,101286.41
2023-03-17T14:34:42.173Z,101291.71
2023-03-17T14:35:42.345Z,101285.62
2023-03-17T14:36:40.967Z,101288.23
2023-03-17T14:37:40.245Z,101287.56
2023-03-17T14:38:48.413Z,101289.34
2023-03-17T14:39:50.802Z,101288.32
2023-03-17T14:40:43.459Z,101284.19
2023-03-17T14:41:43.758Z,101287.23
2023-03-17T14:42:43.952Z,101287.97
2023-03-17T14:43:44.749Z,101290.67
2023-03-17T14:44:44.718Z,101288.2